Time,TemperatureF,DewpointF,PressureIn,WindDirection,WindDirectionDegrees,WindSpeedMPH,WindSpeedGustMPH,Humidity,HourlyPrecipIn,Conditions,Clouds,dailyrainin,SoftwareType,DateUTC
2013-01-29 00:00:00,47.7,39.1,30.21,West,268,0.0,4.0,72,0.00,,,0.00,WeatherCatV1.13B119,2013-01-29 08:00:00,
2013-01-29 00:05:00,47.5,38.9,30.21,ESE,112,0.0,4.0,72,0.00,,,0.00,WeatherCatV1.13B119,2013-01-29 08:05:00,
2013-01-29 00:10:00,47.5,38.9,30.21,ESE,112,0.0,4.0,72,0.00,,,0.00,WeatherCatV1.13B119,2013-01-29 08:10:00,
2013-01-29 00:15:00,47.5,38.9,30.21,ESE,112,0.0,4.0,72,0.00,,,0.00,WeatherCatV1.13B119,2013-01-29 08:15:00,
2013-01-29 00:20:00,47.5,39.3,30.21,North,0,0.0,2.0,73,0.00,,,0.00,WeatherCatV1.13B119,2013-01-29 08:20:00,
2013-01-29 00:25:00,47.5,39.3,30.21,North,0,0.0,2.0,73,0.00,,,0.00,WeatherCatV1.13B119,2013-01-29 08:25:00,
2013-01-29 00:30:00,47.5,39.3,30.21,North,0,0.0,2.0,73,0.00,,,0.00,WeatherCatV1.13B119,2013-01-29 08:30:00,
2013-01-29 00:35:00,47.8,39.6,30.22,North,0,0.0,4.0,73,0.00,,,0.00,WeatherCatV1.13B119,2013-01-29 08:35:00,
2013-01-29 00:40:00,47.8,39.6,30.22,North,0,0.0,4.0,73,0.00,,,0.00,WeatherCatV1.13B119,2013-01-29 08:40:00,
2013-01-29 00:45:00,47.8,39.6,30.22,North,0,0.0,4.0,73,0.00,,,0.00,WeatherCatV1.13B119,2013-01-29 08:45:00,
2013-01-29 00:50:00,47.6,39.4,30.22,ENE,68,0.0,2.0,73,0.00,,,0.00,WeatherCatV1.13B119,2013-01-29 08:50:00,
2013-01-29 00:55:00,47.6,39.4,30.22,ENE,68,0.0,2.0,73,0.00,,,0.00,WeatherCatV1.13B119,2013-01-29 08:55:00,
2013-01-29 01:00:00,47.6,39.4,30.22,ENE,68,0.0,2.0,73,0.00,,,0.00,WeatherCatV1.13B119,2013-01-29 09:00:00,
2013-01-29 01:05:00,47.4,39.9,30.22,ENE,68,0.0,2.0,75,0.00,,,0.00,WeatherCatV1.13B119,2013-01-29 09:05:00,
2013-01-29 01:10:00,47.4,39.9,30.22,ENE,68,0.0,2.0,75,0.00,,,0.00,WeatherCatV1.13B119,2013-01-29 09:10:00,
2013-01-29 01:15:00,47.4,39.9,30.22,ENE,68,0.0,2.0,75,0.00,,,0.00,WeatherCatV1.13B119,2013-01-29 09:15:00,
2013-01-29 01:20:00,47.2,39.3,30.21,ENE,68,0.0,1.0,74,0.00,,,0.00,WeatherCatV1.13B119,2013-01-29 09:20:00,
2013-01-29 01:25:00,47.2,39.3,30.21,ENE,68,0.0,1.0,74,0.00,,,0.00,WeatherCatV1.13B119,2013-01-29 09:25:00,
2013-01-29 01:30:00,47.2,39.3,30.21,ENE,68,0.0,1.0,74,0.00,,,0.00,WeatherCatV1.13B119,2013-01-29 09:30:00,
2013-01-29 01:35:00,46.8,39.6,30.22,ENE,68,0.0,3.0,76,0.00,,,0.00,WeatherCatV1.13B119,2013-01-29 09:35:00,
2013-01-29 01:40:00,46.8,39.6,30.22,ENE,68,0.0,3.0,76,0.00,,,0.00,WeatherCatV1.13B119,2013-01-29 09:40:00,
2013-01-29 01:45:00,46.8,39.6,30.22,ENE,68,0.0,3.0,76,0.00,,,0.00,WeatherCatV1.13B119,2013-01-29 09:45:00,
2013-01-29 01:50:00,46.8,40.0,30.22,SE,135,0.0,1.0,77,0.00,,,0.00,WeatherCatV1.13B119,2013-01-29 09:50:00,
2013-01-29 01:55:00,46.8,40.0,30.22,SE,135,0.0,1.0,77,0.00,,,0.00,WeatherCatV1.13B119,2013-01-29 09:55:00,
2013-01-29 02:00:00,46.8,40.0,30.22,SE,135,0.0,1.0,77,0.00,,,0.00,WeatherCatV1.13B119,2013-01-29 10:00:00,
2013-01-29 02:05:00,46.4,40.6,30.23,SE,135,0.0,1.0,80,0.00,,,0.00,WeatherCatV1.13B119,2013-01-29 10:05:00,
2013-01-29 02:10:00,46.4,40.6,30.23,SE,135,0.0,1.0,80,0.00,,,0.00,WeatherCatV1.13B119,2013-01-29 10:10:00,
2013-01-29 02:15:00,46.4,40.6,30.23,SE,135,0.0,1.0,80,0.00,,,0.00,WeatherCatV1.13B119,2013-01-29 10:15:00,
2013-01-29 02:20:00,46.7,40.9,30.23,SE,135,0.0,1.0,80,0.00,,,0.00,WeatherCatV1.13B119,2013-01-29 10:20:00,
2013-01-29 02:25:00,46.7,40.9,30.23,SE,135,0.0,1.0,80,0.00,,,0.00,WeatherCatV1.13B119,2013-01-29 10:25:00,
2013-01-29 02:30:00,46.7,40.9,30.23,SE,135,0.0,1.0,80,0.00,,,0.00,WeatherCatV1.13B119,2013-01-29 10:30:00,
2013-01-29 02:35:00,46.7,40.9,30.23,SE,135,0.0,1.0,80,0.00,,,0.00,WeatherCatV1.13B119,2013-01-29 10:35:00,
2013-01-29 02:40:00,47.1,40.6,30.23,SE,135,0.0,1.0,78,0.00,,,0.00,WeatherCatV1.13B119,2013-01-29 10:40:00,
2013-01-29 02:45:00,47.1,40.6,30.23,SE,135,0.0,1.0,78,0.00,,,0.00,WeatherCatV1.13B119,2013-01-29 10:45:00,
2013-01-29 02:50:00,47.1,40.6,30.23,SE,135,0.0,1.0,78,0.00,,,0.00,WeatherCatV1.13B119,2013-01-29 10:50:00,
2013-01-29 02:55:00,46.6,39.5,30.23,ENE,68,0.0,3.0,76,0.00,,,0.00,WeatherCatV1.13B119,2013-01-29 10:55:00,
2013-01-29 03:00:00,46.6,39.5,30.23,ENE,68,0.0,3.0,76,0.00,,,0.00,WeatherCatV1.13B119,2013-01-29 11:00:00,
2013-01-29 03:05:00,46.6,39.5,30.23,ENE,68,0.0,3.0,76,0.00,,,0.00,WeatherCatV1.13B119,2013-01-29 11:05:00,
2013-01-29 03:10:00,46.2,39.7,30.23,ENE,68,0.0,0.0,78,0.00,,,0.00,WeatherCatV1.13B119,2013-01-29 11:10:00,
2013-01-29 03:15:00,46.2,39.7,30.23,ENE,68,0.0,0.0,78,0.00,,,0.00,WeatherCatV1.13B119,2013-01-29 11:15:00,
2013-01-29 03:20:00,46.2,39.7,30.23,ENE,68,0.0,0.0,78,0.00,,,0.00,WeatherCatV1.13B119,2013-01-29 11:20:00,
2013-01-29 03:25:00,45.4,39.6,30.22,NNE,22,0.0,2.0,80,0.00,,,0.00,WeatherCatV1.13B119,2013-01-29 11:25:00,
2013-01-29 03:30:00,45.4,39.6,30.22,NNE,22,0.0,2.0,80,0.00,,,0.00,WeatherCatV1.13B119,2013-01-29 11:30:00,
2013-01-29 03:35:00,45.4,39.6,30.22,NNE,22,0.0,2.0,80,0.00,,,0.00,WeatherCatV1.13B119,2013-01-29 11:35:00,
2013-01-29 03:40:00,45.6,40.1,30.22,NNE,22,0.0,1.0,81,0.00,,,0.00,WeatherCatV1.13B119,2013-01-29 11:40:00,
2013-01-29 03:45:00,45.6,40.1,30.22,NNE,22,0.0,1.0,81,0.00,,,0.00,WeatherCatV1.13B119,2013-01-29 11:45:00,
2013-01-29 03:50:00,45.6,40.1,30.22,NNE,22,0.0,1.0,81,0.00,,,0.00,WeatherCatV1.13B119,2013-01-29 11:50:00,
2013-01-29 03:55:00,46.5,39.0,30.23,NNW,338,0.0,6.0,75,0.00,,,0.00,WeatherCatV1.13B119,2013-01-29 11:55:00,
2013-01-29 04:00:00,46.5,39.0,30.23,NNW,338,0.0,6.0,75,0.00,,,0.00,WeatherCatV1.13B119,2013-01-29 12:00:00,
2013-01-29 04:05:00,46.5,39.0,30.23,NNW,338,0.0,6.0,75,0.00,,,0.00,WeatherCatV1.13B119,2013-01-29 12:05:00,
2013-01-29 04:10:00,46.7,41.2,30.23,North,0,0.0,4.0,81,0.00,,,0.00,WeatherCatV1.13B119,2013-01-29 12:10:00,
2013-01-29 04:15:00,46.7,41.2,30.23,North,0,0.0,4.0,81,0.00,,,0.00,WeatherCatV1.13B119,2013-01-29 12:15:00,
2013-01-29 04:20:00,46.2,41.0,30.23,North,0,0.0,1.0,82,0.00,,,0.00,WeatherCatV1.13B119,2013-01-29 12:20:00,
2013-01-29 04:25:00,46.2,41.0,30.23,North,0,0.0,1.0,82,0.00,,,0.00,WeatherCatV1.13B119,2013-01-29 12:25:00,
2013-01-29 04:30:00,46.2,41.0,30.23,North,0,0.0,1.0,82,0.00,,,0.00,WeatherCatV1.13B119,2013-01-29 12:30:00,
2013-01-29 04:35:00,45.4,39.9,30.23,North,0,0.0,1.0,81,0.00,,,0.00,WeatherCatV1.13B119,2013-01-29 12:35:00,
2013-01-29 04:40:00,45.4,39.9,30.23,North,0,0.0,1.0,81,0.00,,,0.00,WeatherCatV1.13B119,2013-01-29 12:40:00,
2013-01-29 04:45:00,45.4,39.9,30.23,North,0,0.0,1.0,81,0.00,,,0.00,WeatherCatV1.13B119,2013-01-29 12:45:00,
2013-01-29 04:50:00,46.5,39.0,30.23,North,0,0.0,2.0,75,0.00,,,0.00,WeatherCatV1.13B119,2013-01-29 12:50:00,
2013-01-29 04:55:00,46.5,39.0,30.23,North,0,0.0,2.0,75,0.00,,,0.00,WeatherCatV1.13B119,2013-01-29 12:55:00,
2013-01-29 05:09:00,46.5,39.0,30.23,North,0,0.0,2.0,75,0.00,,,0.00,WeatherCatV1.13B119,2013-01-29 13:09:00,
2013-01-29 05:24:00,46.5,39.3,30.24,NNE,24,0.0,1.0,76,0.00,,,0.00,WeatherCatV1.13B119,2013-01-29 13:24:00,
2013-01-29 05:39:00,47.3,43.3,30.24,North,10,2.0,3.0,86,0.00,,,0.00,WeatherCatV1.13B119,2013-01-29 13:39:00,
2013-01-29 05:54:00,48.4,42.2,30.24,NW,318,0.0,0.0,79,0.00,,,0.00,WeatherCatV1.13B119,2013-01-29 13:54:00,
2013-01-29 06:09:00,47.6,40.1,30.24,NW,318,0.0,1.0,75,0.00,,,0.00,WeatherCatV1.13B119,2013-01-29 14:09:00,
2013-01-29 06:24:00,46.8,40.3,30.25,NW,318,0.0,0.0,78,0.00,,,0.00,WeatherCatV1.13B119,2013-01-29 14:24:00,
2013-01-29 06:39:00,46.4,40.2,30.25,NW,318,0.0,0.0,79,0.00,,,0.00,WeatherCatV1.13B119,2013-01-29 14:39:00,
2013-01-29 06:54:00,48.0,43.4,30.26,NW,318,0.0,3.0,84,0.00,,,0.00,WeatherCatV1.13B119,2013-01-29 14:54:00,
2013-01-29 07:09:00,47.9,41.0,30.25,NW,315,0.0,2.0,77,0.00,,,0.00,WeatherCatV1.13B119,2013-01-29 15:09:00,
2013-01-29 07:24:00,47.8,39.9,30.26,NW,315,0.0,0.0,74,0.00,,,0.00,WeatherCatV1.13B119,2013-01-29 15:24:00,
2013-01-29 07:39:00,48.9,40.3,30.26,NW,315,0.0,0.0,72,0.00,,,0.00,WeatherCatV1.13B119,2013-01-29 15:39:00,
2013-01-29 07:54:00,50.9,40.0,30.26,NW,315,0.0,0.0,66,0.00,,,0.00,WeatherCatV1.13B119,2013-01-29 15:54:00,
2013-01-29 08:09:00,48.8,39.1,30.26,NW,315,0.0,1.0,69,0.00,,,0.00,WeatherCatV1.13B119,2013-01-29 16:09:00,
2013-01-29 08:24:00,47.8,40.6,30.26,NW,315,0.0,0.0,76,0.00,,,0.00,WeatherCatV1.13B119,2013-01-29 16:24:00,
2013-01-29 08:39:00,49.2,41.6,30.26,NW,315,0.0,1.0,75,0.00,,,0.00,WeatherCatV1.13B119,2013-01-29 16:39:00,
2013-01-29 08:54:00,51.2,42.1,30.27,East,79,0.0,1.0,71,0.00,,,0.00,WeatherCatV1.13B119,2013-01-29 16:54:00,
2013-01-29 09:09:00,52.2,43.1,30.27,East,80,1.0,1.0,71,0.00,,,0.00,WeatherCatV1.13B119,2013-01-29 17:09:00,
2013-01-29 09:24:00,53.3,42.6,30.27,ENE,74,0.0,3.0,67,0.00,,,0.00,WeatherCatV1.13B119,2013-01-29 17:24:00,
2013-01-29 09:39:00,54.2,41.9,30.27,NW,325,0.0,4.0,63,0.00,,,0.00,WeatherCatV1.13B119,2013-01-29 17:39:00,
2013-01-29 09:54:00,54.6,42.7,30.27,North,355,0.0,1.0,64,0.00,,,0.00,WeatherCatV1.13B119,2013-01-29 17:54:00,
2013-01-29 10:09:00,54.9,41.7,30.28,North,0,0.0,1.0,61,0.00,,,0.00,WeatherCatV1.13B119,2013-01-29 18:09:00,
2013-01-29 10:24:00,55.4,43.8,30.28,ESE,105,0.0,1.0,65,0.00,,,0.00,WeatherCatV1.13B119,2013-01-29 18:24:00,
2013-01-29 10:39:00,57.8,46.5,30.28,North,5,0.0,1.0,66,0.00,,,0.00,WeatherCatV1.13B119,2013-01-29 18:39:00,
2013-01-29 10:54:00,58.6,43.4,30.28,NNE,20,1.0,3.0,57,0.00,,,0.00,WeatherCatV1.13B119,2013-01-29 18:54:00,
2013-01-29 11:09:00,57.6,42.5,30.28,NE,40,0.0,2.0,57,0.00,,,0.00,WeatherCatV1.13B119,2013-01-29 19:09:00,
2013-01-29 11:24:00,56.2,43.4,30.28,ESE,121,0.0,2.0,62,0.00,,,0.00,WeatherCatV1.13B119,2013-01-29 19:24:00,
2013-01-29 11:39:00,53.8,43.9,30.28,East,82,3.0,7.0,69,0.00,,,0.00,WeatherCatV1.13B119,2013-01-29 19:39:00,
2013-01-29 11:54:00,53.9,44.3,30.27,ESE,107,5.0,5.0,70,0.00,,,0.00,WeatherCatV1.13B119,2013-01-29 19:54:00,
2013-01-29 12:09:00,54.2,43.1,30.26,SE,133,5.0,6.0,66,0.00,,,0.00,WeatherCatV1.13B119,2013-01-29 20:09:00,
2013-01-29 12:24:00,55.1,43.5,30.26,SE,142,2.0,5.0,65,0.00,,,0.00,WeatherCatV1.13B119,2013-01-29 20:24:00,
2013-01-29 12:39:00,55.1,43.5,30.25,SE,144,0.0,6.0,65,0.00,,,0.00,WeatherCatV1.13B119,2013-01-29 20:39:00,
2013-01-29 12:54:00,55.5,43.9,30.24,ESE,113,4.0,5.0,65,0.00,,,0.00,WeatherCatV1.13B119,2013-01-29 20:54:00,
2013-01-29 13:09:00,56.1,43.7,30.24,East,90,2.0,5.0,63,0.00,,,0.00,WeatherCatV1.13B119,2013-01-29 21:09:00,
2013-01-29 13:24:00,55.5,43.9,30.23,SE,136,1.0,8.0,65,0.00,,,0.00,WeatherCatV1.13B119,2013-01-29 21:24:00,
2013-01-29 13:39:00,55.8,44.6,30.22,SSE,148,4.0,9.0,66,0.00,,,0.00,WeatherCatV1.13B119,2013-01-29 21:39:00,
2013-01-29 13:54:00,55.8,44.6,30.22,SE,132,8.0,10.0,66,0.00,,,0.00,WeatherCatV1.13B119,2013-01-29 21:54:00,
2013-01-29 14:09:00,55.7,45.3,30.21,East,89,0.0,4.0,68,0.00,,,0.00,WeatherCatV1.13B119,2013-01-29 22:09:00,
2013-01-29 14:24:00,55.8,45.4,30.21,South,169,1.0,2.0,68,0.00,,,0.00,WeatherCatV1.13B119,2013-01-29 22:24:00,
2013-01-29 14:39:00,56.6,46.2,30.21,NNE,31,1.0,3.0,68,0.00,,,0.00,WeatherCatV1.13B119,2013-01-29 22:39:00,
2013-01-29 14:54:00,56.7,46.3,30.20,NNE,13,3.0,3.0,68,0.00,,,0.00,WeatherCatV1.13B119,2013-01-29 22:54:00,
2013-01-29 15:09:00,55.9,45.5,30.21,East,101,4.0,6.0,68,0.00,,,0.00,WeatherCatV1.13B119,2013-01-29 23:09:00,
2013-01-29 15:24:00,55.7,45.7,30.21,ESE,118,0.0,4.0,69,0.00,,,0.00,WeatherCatV1.13B119,2013-01-29 23:24:00,
2013-01-29 15:39:00,55.6,46.3,30.21,SE,127,0.0,4.0,71,0.00,,,0.00,WeatherCatV1.13B119,2013-01-29 23:39:00,
2013-01-29 15:54:00,56.0,47.1,30.20,SE,127,0.0,0.0,72,0.00,,,0.00,WeatherCatV1.13B119,2013-01-29 23:54:00,
2013-01-29 16:09:00,56.9,46.4,30.19,SE,127,0.0,0.0,68,0.00,,,0.00,WeatherCatV1.13B119,2013-01-30 00:09:00,
2013-01-29 16:24:00,57.1,47.0,30.20,SE,127,1.0,1.0,69,0.00,,,0.00,WeatherCatV1.13B119,2013-01-30 00:24:00,
2013-01-29 16:39:00,55.1,46.6,30.19,SE,127,0.0,0.0,73,0.00,,,0.00,WeatherCatV1.13B119,2013-01-30 00:39:00,
2013-01-29 16:54:00,55.9,47.4,30.19,SE,127,0.0,0.0,73,0.00,,,0.00,WeatherCatV1.13B119,2013-01-30 00:54:00,
2013-01-29 17:09:00,55.0,46.5,30.19,SE,127,0.0,0.0,73,0.00,,,0.00,WeatherCatV1.13B119,2013-01-30 01:09:00,
2013-01-29 17:24:00,54.6,46.5,30.20,SE,127,0.0,0.0,74,0.00,,,0.00,WeatherCatV1.13B119,2013-01-30 01:24:00,
2013-01-29 17:39:00,55.6,46.3,30.20,SE,127,0.0,0.0,71,0.00,,,0.00,WeatherCatV1.13B119,2013-01-30 01:39:00,
2013-01-29 17:54:00,54.2,46.4,30.20,SE,127,0.0,0.0,75,0.00,,,0.00,WeatherCatV1.13B119,2013-01-30 01:54:00,
2013-01-29 18:09:00,55.4,46.2,30.20,SE,127,0.0,1.0,71,0.00,,,0.00,WeatherCatV1.13B119,2013-01-30 02:09:00,
2013-01-29 18:24:00,56.2,45.8,30.21,SE,127,0.0,0.0,68,0.00,,,0.00,WeatherCatV1.13B119,2013-01-30 02:24:00,
2013-01-29 18:39:00,54.8,45.6,30.21,SE,127,0.0,0.0,71,0.00,,,0.00,WeatherCatV1.13B119,2013-01-30 02:39:00,
2013-01-29 18:54:00,53.4,46.4,30.22,SE,127,0.0,0.0,77,0.00,,,0.00,WeatherCatV1.13B119,2013-01-30 02:54:00,
2013-01-29 19:09:00,52.6,45.9,30.22,SE,127,0.0,0.0,78,0.00,,,0.00,WeatherCatV1.13B119,2013-01-30 03:09:00,
2013-01-29 19:24:00,54.6,44.6,30.22,ENE,78,0.0,0.0,69,0.00,,,0.00,WeatherCatV1.13B119,2013-01-30 03:24:00,
2013-01-29 19:39:00,54.3,44.0,30.22,NE,41,0.0,0.0,68,0.00,,,0.00,WeatherCatV1.13B119,2013-01-30 03:39:00,
2013-01-29 19:54:00,53.6,43.7,30.22,NE,41,0.0,0.0,69,0.00,,,0.00,WeatherCatV1.13B119,2013-01-30 03:54:00,
2013-01-29 20:09:00,53.1,43.6,30.22,NE,41,0.0,1.0,70,0.00,,,0.00,WeatherCatV1.13B119,2013-01-30 04:09:00,
2013-01-29 20:24:00,52.5,44.5,30.22,NE,41,0.0,0.0,74,0.00,,,0.00,WeatherCatV1.13B119,2013-01-30 04:24:00,
2013-01-29 20:39:00,51.9,43.9,30.23,NE,41,0.0,0.0,74,0.00,,,0.00,WeatherCatV1.13B119,2013-01-30 04:39:00,
2013-01-29 20:54:00,52.8,44.4,30.22,NE,41,0.0,0.0,73,0.00,,,0.00,WeatherCatV1.13B119,2013-01-30 04:54:00,
2013-01-29 21:09:00,53.0,44.6,30.22,NE,41,0.0,0.0,73,0.00,,,0.00,WeatherCatV1.13B119,2013-01-30 05:09:00,
2013-01-29 21:24:00,53.8,44.6,30.22,NE,41,0.0,0.0,71,0.00,,,0.00,WeatherCatV1.13B119,2013-01-30 05:24:00,
2013-01-29 21:39:00,54.2,45.0,30.22,NE,41,0.0,1.0,71,0.00,,,0.00,WeatherCatV1.13B119,2013-01-30 05:39:00,
2013-01-29 21:54:00,54.9,44.9,30.22,NW,321,2.0,3.0,69,0.00,,,0.00,WeatherCatV1.13B119,2013-01-30 05:54:00,
2013-01-29 22:09:00,55.1,47.3,30.22,NNW,332,0.0,3.0,75,0.00,,,0.00,WeatherCatV1.13B119,2013-01-30 06:09:00,
2013-01-29 22:24:00,58.0,47.1,30.22,NW,323,0.0,0.0,67,0.00,,,0.00,WeatherCatV1.13B119,2013-01-30 06:24:00,
2013-01-29 22:39:00,55.6,45.6,30.22,NW,323,0.0,0.0,69,0.00,,,0.00,WeatherCatV1.13B119,2013-01-30 06:39:00,
2013-01-29 22:54:00,55.6,45.6,30.22,NW,323,0.0,0.0,69,0.00,,,0.00,WeatherCatV1.13B119,2013-01-30 06:54:00,
2013-01-29 23:09:00,54.6,45.0,30.22,NW,323,0.0,0.0,70,0.00,,,0.00,WeatherCatV1.13B119,2013-01-30 07:09:00,
2013-01-29 23:24:00,55.4,45.4,30.22,NW,323,0.0,0.0,69,0.00,,,0.00,WeatherCatV1.13B119,2013-01-30 07:24:00,
2013-01-29 23:35:00,55.1,45.5,30.22,NW,323,0.0,0.0,70,0.00,,,0.00,WeatherCatV1.13B119,2013-01-30 07:35:00,
2013-01-29 23:39:00,54.9,45.3,30.22,NW,323,0.0,0.0,70,0.00,,,0.00,WeatherCatV1.13B119,2013-01-30 07:39:00,
2013-01-29 23:40:00,54.9,44.9,30.22,NW,323,0.0,0.0,69,0.00,,,0.00,WeatherCatV1.13B119,2013-01-30 07:40:00,
2013-01-29 23:45:00,54.7,45.1,30.22,NW,323,0.0,0.0,70,0.00,,,0.00,WeatherCatV1.13B119,2013-01-30 07:45:00,
2013-01-29 23:50:00,54.9,44.9,30.22,NW,323,0.0,0.0,69,0.00,,,0.00,WeatherCatV1.13B119,2013-01-30 07:50:00,
2013-01-29 23:55:00,54.9,44.9,30.22,NW,323,0.0,0.0,69,0.00,,,0.00,WeatherCatV1.13B119,2013-01-30 07:55:00,